Terminal Aerodrome Forecast
Issued by NWS Cleveland, OH

Home | Current Version | Previous Version | Graphics & Text | Print | Product List | Glossary On
Versions: 1 2 3 4 5 6 7 8 9 10 11 12 13 14 15 16 17 18
000
FTUS41 KCLE 170500
TAFYNG
TAF
KYNG 170525Z 1706/1806 24012KT 6SM -SHRA OVC006
      TEMPO 1706/1708 4SM -SHRA OVC004
     FM170900 25012KT P6SM VCSH OVC008
     FM171200 26012G22KT P6SM SCT008 OVC012
      TEMPO 1712/1716 6SM -SHSN
     FM172300 27010KT P6SM OVC020=

USA.gov is the U.S. government's official web portal to all federal, state and local government web resources and services.